createdAt,value
2023-02-16T00:06:00.150Z,83.11
2023-02-16T00:16:06.513Z,83.37
2023-02-16T00:26:15.182Z,83.42
2023-02-16T00:36:22.678Z,83.41
2023-02-16T00:46:30.181Z,83.51
2023-02-16T00:56:37.805Z,83.57
2023-02-16T01:07:02.307Z,83.66
2023-02-16T01:17:11.242Z,83.74
2023-02-16T01:27:18.256Z,83.75
2023-02-16T01:37:25.417Z,83.87
2023-02-16T01:47:35.758Z,83.91
2023-02-16T01:57:44.727Z,84.08
2023-02-16T02:07:53.350Z,84.17
2023-02-16T02:18:00.523Z,83.96
2023-02-16T02:28:05.460Z,84.04
2023-02-16T02:38:11.071Z,84.21
2023-02-16T02:48:18.468Z,84.33
2023-02-16T02:58:44.043Z,84.34
2023-02-16T03:08:52.262Z,84.20
2023-02-16T03:19:18.098Z,84.33
2023-02-16T03:29:27.666Z,84.38
2023-02-16T03:39:31.767Z,84.42
2023-02-16T03:49:38.760Z,84.53
2023-02-16T03:59:44.613Z,84.41
2023-02-16T04:09:51.849Z,84.52
2023-02-16T04:19:58.917Z,84.60
2023-02-16T04:30:05.482Z,84.50
2023-02-16T04:40:16.219Z,84.80
2023-02-16T04:50:22.232Z,85.00
2023-02-16T05:00:28.414Z,85.08
2023-02-16T05:10:34.448Z,84.86
2023-02-16T05:20:59.240Z,84.87
2023-02-16T05:31:07.098Z,85.06
2023-02-16T05:41:23.656Z,85.24
2023-02-16T05:51:30.679Z,85.30
2023-02-16T06:01:41.463Z,85.47
2023-02-16T06:11:48.602Z,85.36
2023-02-16T06:21:56.139Z,85.37
2023-02-16T06:32:02.668Z,85.42
2023-02-16T06:42:10.369Z,85.57
2023-02-16T06:52:17.562Z,85.51
2023-02-16T07:02:25.572Z,85.96
2023-02-16T07:12:32.994Z,85.82
2023-02-16T07:22:39.114Z,85.73
2023-02-16T07:32:44.421Z,85.82
2023-02-16T07:42:51.400Z,85.73
2023-02-16T07:52:58.529Z,85.15
2023-02-16T08:03:06.280Z,84.47
2023-02-16T08:13:13.726Z,83.59
2023-02-16T08:23:18.368Z,82.76
2023-02-16T08:33:25.557Z,82.34
2023-02-16T08:43:32.997Z,81.59
2023-02-16T08:53:41.947Z,80.60
2023-02-16T09:03:49.457Z,80.20
2023-02-16T09:13:56.632Z,80.14
2023-02-16T09:24:05.595Z,80.03
2023-02-16T09:34:18.637Z,79.88
2023-02-16T09:44:29.219Z,79.31
2023-02-16T09:54:37.358Z,79.10
2023-02-16T10:04:51.829Z,78.61
2023-02-16T10:15:04.798Z,78.29
2023-02-16T10:25:14.135Z,77.86
2023-02-16T10:35:23.156Z,77.61
2023-02-16T10:45:28.700Z,76.95
2023-02-16T10:55:36.113Z,76.81
2023-02-16T11:05:43.576Z,76.13
2023-02-16T11:15:54.950Z,75.04
2023-02-16T11:26:01.006Z,74.54
2023-02-16T11:36:07.643Z,73.69
2023-02-16T11:46:12.861Z,73.07
2023-02-16T11:56:22.644Z,72.81
2023-02-16T12:06:31.375Z,70.72
2023-02-16T12:16:41.695Z,71.02
2023-02-16T12:26:48.227Z,69.92
2023-02-16T12:36:54.609Z,70.15
2023-02-16T12:47:06.359Z,70.26
2023-02-16T12:57:11.824Z,69.18
2023-02-16T13:07:16.160Z,67.98
2023-02-16T13:17:32.173Z,68.48
2023-02-16T13:27:38.581Z,68.22
2023-02-16T13:37:51.249Z,68.93
2023-02-16T13:47:59.895Z,69.39
2023-02-16T13:58:06.636Z,69.54
2023-02-16T14:08:11.366Z,69.41
2023-02-16T14:18:29.523Z,69.81
2023-02-16T14:29:16.148Z,69.97
2023-02-16T14:39:26.072Z,70.25
2023-02-16T14:49:41.890Z,70.16
2023-02-16T14:59:51.657Z,70.08
2023-02-16T15:09:56.286Z,69.72
2023-02-16T15:20:04.281Z,69.76
2023-02-16T15:30:27.447Z,69.91
2023-02-16T15:40:35.710Z,70.16
2023-02-16T15:50:44.197Z,70.37
2023-02-16T16:00:51.738Z,70.86
2023-02-16T16:10:59.796Z,71.25
2023-02-16T16:21:13.719Z,71.53
2023-02-16T16:31:33.251Z,71.79
2023-02-16T16:41:40.731Z,72.25
2023-02-16T16:51:54.524Z,72.66
2023-02-16T17:02:01.928Z,72.86
2023-02-16T17:12:09.536Z,73.16
2023-02-16T17:22:18.516Z,73.39
2023-02-16T17:32:26.133Z,73.88
2023-02-16T17:42:33.906Z,74.08
2023-02-16T17:52:41.792Z,74.33
2023-02-16T18:02:49.101Z,74.57
2023-02-16T18:12:57.104Z,74.88
2023-02-16T18:23:03.375Z,75.26
2023-02-16T18:33:11.094Z,75.49
2023-02-16T18:43:18.882Z,75.61
2023-02-16T18:53:25.224Z,75.92
2023-02-16T19:03:32.931Z,76.31
2023-02-16T19:13:40.887Z,76.38
2023-02-16T19:23:47.429Z,76.73
2023-02-16T19:33:55.300Z,77.12
2023-02-16T19:44:03.057Z,77.10
2023-02-16T19:54:10.634Z,77.27
2023-02-16T20:04:18.118Z,77.47
2023-02-16T20:14:25.251Z,77.62
2023-02-16T20:24:32.854Z,77.82
2023-02-16T20:34:40.337Z,77.94
2023-02-16T20:44:47.724Z,78.17
2023-02-16T20:54:55.095Z,78.08
2023-02-16T21:05:02.237Z,78.34
2023-02-16T21:15:09.748Z,78.59
2023-02-16T21:25:17.912Z,78.77
2023-02-16T21:35:25.180Z,79.07
2023-02-16T21:45:32.928Z,79.10
2023-02-16T21:55:57.282Z,79.35
2023-02-16T22:06:06.612Z,79.45
2023-02-16T22:16:12.389Z,79.46
2023-02-16T22:26:22.947Z,79.55
2023-02-16T22:36:29.233Z,79.74
2023-02-16T22:46:36.689Z,79.86
2023-02-16T22:56:43.965Z,79.81
2023-02-16T23:06:51.362Z,79.73
2023-02-16T23:16:58.644Z,80.05
2023-02-16T23:27:04.817Z,80.15
2023-02-16T23:37:12.063Z,80.19
2023-02-16T23:47:20.604Z,80.46
2023-02-16T23:57:27.867Z,80.40
